createdAt,value
2023-01-19T00:07:13.332Z,99879.13
2023-01-19T00:17:16.341Z,99876.41
2023-01-19T00:27:23.447Z,99893.56
2023-01-19T00:37:26.404Z,99915.38
2023-01-19T00:47:32.161Z,99895.00
2023-01-19T00:57:35.416Z,99897.44
2023-01-19T01:07:45.130Z,99895.97
2023-01-19T01:28:35.257Z,99898.53
2023-01-19T01:38:38.396Z,99904.91
2023-01-19T01:48:44.251Z,99916.34
2023-01-19T01:58:47.849Z,99921.06
2023-01-19T02:09:14.506Z,99927.53
2023-01-19T02:19:23.470Z,99926.56
2023-01-19T02:29:29.590Z,99934.53
2023-01-19T02:39:36.055Z,99939.19
2023-01-19T02:49:40.452Z,99949.53
2023-01-19T02:59:54.529Z,99961.56
2023-01-19T03:10:07.122Z,99962.38
2023-01-19T03:20:13.691Z,99979.25
2023-01-19T03:30:23.434Z,99984.66
2023-01-19T03:40:30.270Z,99993.88
2023-01-19T03:50:34.577Z,100006.88
2023-01-19T04:00:37.599Z,100026.41
2023-01-19T04:10:43.773Z,100019.94
2023-01-19T04:20:46.708Z,100045.56
2023-01-19T04:30:52.332Z,100065.88
2023-01-19T04:40:55.366Z,100071.63
2023-01-19T04:50:59.524Z,100086.53
2023-01-19T05:01:02.352Z,100029.91
2023-01-19T05:11:06.639Z,100013.41
2023-01-19T05:21:09.446Z,100006.53
2023-01-19T05:31:13.640Z,100032.16
2023-01-19T05:41:17.711Z,100036.41
2023-01-19T05:51:21.829Z,100060.50
2023-01-19T06:01:24.951Z,100047.47
2023-01-19T06:11:29.162Z,100068.94
2023-01-19T06:21:32.555Z,100075.81
2023-01-19T06:31:36.714Z,100075.06
2023-01-19T06:41:39.542Z,100093.78
2023-01-19T06:51:43.627Z,100107.97
2023-01-19T07:01:46.528Z,100128.66
2023-01-19T07:11:50.706Z,100144.72
2023-01-19T07:21:53.443Z,100152.38
2023-01-19T07:31:57.846Z,100166.97
2023-01-19T07:42:00.557Z,100173.44
2023-01-19T07:52:04.704Z,100199.13
2023-01-19T08:02:07.984Z,100197.59
2023-01-19T08:12:12.250Z,100216.75
2023-01-19T08:22:14.972Z,100233.59
2023-01-19T08:32:19.247Z,100252.78
2023-01-19T08:42:22.272Z,100261.56
2023-01-19T08:52:26.758Z,100275.38
2023-01-19T09:02:29.861Z,100283.81
2023-01-19T09:12:34.047Z,100290.72
2023-01-19T09:22:36.844Z,100288.44
2023-01-19T09:32:41.089Z,100292.25
2023-01-19T09:42:44.698Z,100307.22
2023-01-19T09:52:53.846Z,100324.06
2023-01-19T10:03:00.099Z,100330.63
2023-01-19T10:13:15.079Z,100349.41
2023-01-19T10:23:35.004Z,100357.44
2023-01-19T10:33:39.549Z,100348.63
2023-01-19T10:43:43.471Z,100360.91
2023-01-19T10:53:56.501Z,100362.03
2023-01-19T11:04:05.596Z,100360.50
2023-01-19T11:14:11.821Z,100350.91
2023-01-19T11:24:16.520Z,100350.88
2023-01-19T11:34:31.361Z,100351.63
2023-01-19T11:44:35.534Z,100353.13
2023-01-19T11:54:42.807Z,100352.34
2023-01-19T12:04:48.081Z,100342.34
2023-01-19T12:14:56.624Z,100351.50
2023-01-19T12:25:03.005Z,100350.69
2023-01-19T12:35:07.705Z,100349.91
2023-01-19T12:45:14.647Z,100365.25
2023-01-19T12:55:22.064Z,100352.13
2023-01-19T13:05:45.784Z,100356.00
2023-01-19T13:15:50.069Z,100359.09
2023-01-19T13:25:54.714Z,100365.94
2023-01-19T13:35:59.820Z,100369.78
2023-01-19T13:46:03.624Z,100374.84
2023-01-19T13:56:08.596Z,100370.63
2023-01-19T14:06:22.276Z,100371.34
2023-01-19T14:16:26.656Z,100382.91
2023-01-19T14:26:47.230Z,100375.59
2023-01-19T14:36:52.862Z,100379.88
2023-01-19T14:46:55.729Z,100394.56
2023-01-19T14:56:59.998Z,100405.34
2023-01-19T15:07:02.843Z,100393.84
2023-01-19T15:17:07.002Z,100406.53
2023-01-19T15:27:10.599Z,100438.41
2023-01-19T15:37:14.769Z,100449.94
2023-01-19T15:47:17.585Z,100466.03
2023-01-19T15:57:22.231Z,100479.84
2023-01-19T16:07:25.052Z,100484.06
2023-01-19T16:17:29.302Z,100463.72
2023-01-19T16:27:32.047Z,100485.16
2023-01-19T16:37:36.364Z,100488.91
2023-01-19T16:47:39.807Z,100490.72
2023-01-19T16:57:44.438Z,100503.75
2023-01-19T17:07:47.220Z,100504.84
2023-01-19T17:17:51.412Z,100514.78
2023-01-19T17:27:54.172Z,100529.31
2023-01-19T17:37:58.397Z,100512.00
2023-01-19T17:48:01.196Z,100518.44
2023-01-19T17:58:05.371Z,100534.50
2023-01-19T18:08:08.138Z,100538.66
2023-01-19T18:18:12.278Z,100531.25
2023-01-19T18:28:15.093Z,100548.84
2023-01-19T18:38:19.287Z,100541.91
2023-01-19T18:48:22.174Z,100541.81
2023-01-19T18:58:28.724Z,100555.66
2023-01-19T19:08:33.539Z,100560.22
2023-01-19T19:18:37.941Z,100570.22
2023-01-19T19:28:41.515Z,100566.38
2023-01-19T19:38:47.573Z,100560.91
2023-01-19T19:48:50.368Z,100568.53
2023-01-19T19:58:55.119Z,100575.03
2023-01-19T20:08:58.160Z,100587.22
2023-01-19T20:19:03.361Z,100610.50
2023-01-19T20:29:07.284Z,100628.03
2023-01-19T20:39:12.724Z,100635.53
2023-01-19T20:49:16.100Z,100665.69
2023-01-19T20:59:20.364Z,100677.56
2023-01-19T21:09:23.165Z,100708.63
2023-01-19T21:19:27.298Z,100719.72
2023-01-19T21:29:30.257Z,100723.94
2023-01-19T21:39:34.385Z,100734.38
2023-01-19T21:49:37.209Z,100744.19
2023-01-19T21:59:41.366Z,100751.91
2023-01-19T22:09:44.156Z,100766.19
2023-01-19T22:19:48.722Z,100779.94
2023-01-19T22:29:51.472Z,100776.06
2023-01-19T22:39:55.661Z,100787.59
2023-01-19T22:49:58.452Z,100787.66
2023-01-19T23:00:03.077Z,100785.28
2023-01-19T23:10:06.299Z,100785.75
2023-01-19T23:20:11.586Z,100783.72
2023-01-19T23:30:14.851Z,100775.63
2023-01-19T23:40:19.418Z,100789.25
2023-01-19T23:50:22.498Z,100799.16
